sensor_id;sensor_type;location;lat;lon;timestamp;P1;durP1;ratioP1;P2;durP2;ratioP2
62796;SDS011;48839;48.546;-4.178;2024-02-15T00:01:26;6.27;;;1.80;;
62796;SDS011;48839;48.546;-4.178;2024-02-15T00:06:56;10.32;;;4.70;;
62796;SDS011;48839;48.546;-4.178;2024-02-15T00:12:26;4.90;;;2.83;;
62796;SDS011;48839;48.546;-4.178;2024-02-15T00:17:56;9.82;;;4.80;;
62796;SDS011;48839;48.546;-4.178;2024-02-15T00:23:25;11.98;;;3.58;;
62796;SDS011;48839;48.546;-4.178;2024-02-15T00:28:55;5.63;;;2.07;;
62796;SDS011;48839;48.546;-4.178;2024-02-15T00:34:33;8.05;;;3.53;;
62796;SDS011;48839;48.546;-4.178;2024-02-15T00:40:03;13.83;;;10.00;;
62796;SDS011;48839;48.546;-4.178;2024-02-15T00:45:33;5.75;;;2.35;;
62796;SDS011;48839;48.546;-4.178;2024-02-15T00:51:02;7.68;;;3.83;;
62796;SDS011;48839;48.546;-4.178;2024-02-15T00:56:32;8.57;;;3.35;;
62796;SDS011;48839;48.546;-4.178;2024-02-15T01:02:02;6.80;;;1.93;;
62796;SDS011;48839;48.546;-4.178;2024-02-15T01:07:32;5.00;;;1.67;;
62796;SDS011;48839;48.546;-4.178;2024-02-15T01:13:02;5.30;;;2.00;;
62796;SDS011;48839;48.546;-4.178;2024-02-15T01:18:31;4.15;;;1.88;;
62796;SDS011;48839;48.546;-4.178;2024-02-15T01:24:01;3.55;;;1.83;;
62796;SDS011;48839;48.546;-4.178;2024-02-15T01:29:32;3.17;;;1.40;;
62796;SDS011;48839;48.546;-4.178;2024-02-15T01:35:02;4.30;;;1.40;;
62796;SDS011;48839;48.546;-4.178;2024-02-15T01:40:31;8.13;;;1.80;;
62796;SDS011;48839;48.546;-4.178;2024-02-15T01:46:02;4.80;;;1.52;;
62796;SDS011;48839;48.546;-4.178;2024-02-15T01:51:36;7.53;;;5.00;;
62796;SDS011;48839;48.546;-4.178;2024-02-15T01:57:06;7.00;;;3.03;;
62796;SDS011;48839;48.546;-4.178;2024-02-15T02:02:36;4.50;;;2.33;;
62796;SDS011;48839;48.546;-4.178;2024-02-15T02:08:07;7.17;;;1.83;;
62796;SDS011;48839;48.546;-4.178;2024-02-15T02:13:38;3.70;;;1.30;;
62796;SDS011;48839;48.546;-4.178;2024-02-15T02:19:07;3.10;;;1.20;;
62796;SDS011;48839;48.546;-4.178;2024-02-15T02:30:24;3.08;;;1.00;;
62796;SDS011;48839;48.546;-4.178;2024-02-15T02:35:58;4.28;;;1.02;;
62796;SDS011;48839;48.546;-4.178;2024-02-15T02:41:27;2.72;;;1.73;;
62796;SDS011;48839;48.546;-4.178;2024-02-15T02:46:57;1.83;;;1.10;;
62796;SDS011;48839;48.546;-4.178;2024-02-15T02:52:33;4.00;;;1.38;;
62796;SDS011;48839;48.546;-4.178;2024-02-15T02:58:03;5.22;;;1.30;;
62796;SDS011;48839;48.546;-4.178;2024-02-15T03:03:34;5.53;;;1.98;;
62796;SDS011;48839;48.546;-4.178;2024-02-15T03:09:03;4.45;;;1.50;;
62796;SDS011;48839;48.546;-4.178;2024-02-15T03:14:35;2.38;;;1.25;;
62796;SDS011;48839;48.546;-4.178;2024-02-15T03:20:05;2.50;;;1.23;;
62796;SDS011;48839;48.546;-4.178;2024-02-15T03:25:40;3.17;;;1.40;;
62796;SDS011;48839;48.546;-4.178;2024-02-15T03:31:10;6.03;;;1.37;;
62796;SDS011;48839;48.546;-4.178;2024-02-15T03:36:40;2.88;;;1.50;;
62796;SDS011;48839;48.546;-4.178;2024-02-15T03:42:09;3.03;;;1.52;;
62796;SDS011;48839;48.546;-4.178;2024-02-15T03:47:39;5.70;;;1.67;;
62796;SDS011;48839;48.546;-4.178;2024-02-15T03:53:09;5.47;;;1.80;;
62796;SDS011;48839;48.546;-4.178;2024-02-15T03:58:39;3.97;;;1.80;;
62796;SDS011;48839;48.546;-4.178;2024-02-15T04:04:09;3.00;;;1.80;;
62796;SDS011;48839;48.546;-4.178;2024-02-15T04:09:39;4.18;;;1.58;;
62796;SDS011;48839;48.546;-4.178;2024-02-15T04:15:08;3.88;;;1.70;;
62796;SDS011;48839;48.546;-4.178;2024-02-15T04:20:43;4.97;;;1.88;;
62796;SDS011;48839;48.546;-4.178;2024-02-15T04:26:14;4.05;;;1.77;;
62796;SDS011;48839;48.546;-4.178;2024-02-15T04:31:43;3.35;;;2.15;;
62796;SDS011;48839;48.546;-4.178;2024-02-15T04:37:13;4.57;;;1.77;;
62796;SDS011;48839;48.546;-4.178;2024-02-15T04:42:43;4.20;;;2.28;;
62796;SDS011;48839;48.546;-4.178;2024-02-15T04:48:15;4.00;;;2.20;;
62796;SDS011;48839;48.546;-4.178;2024-02-15T04:53:47;5.78;;;2.30;;
62796;SDS011;48839;48.546;-4.178;2024-02-15T04:59:17;8.65;;;5.40;;
62796;SDS011;48839;48.546;-4.178;2024-02-15T05:04:48;3.63;;;2.37;;
62796;SDS011;48839;48.546;-4.178;2024-02-15T05:10:19;3.47;;;1.98;;
62796;SDS011;48839;48.546;-4.178;2024-02-15T05:15:49;3.17;;;2.00;;
62796;SDS011;48839;48.546;-4.178;2024-02-15T05:21:18;3.37;;;1.87;;
62796;SDS011;48839;48.546;-4.178;2024-02-15T05:23:44;5.47;;;2.10;;
62796;SDS011;48839;48.546;-4.178;2024-02-15T05:29:14;2.63;;;1.55;;
62796;SDS011;48839;48.546;-4.178;2024-02-15T05:34:46;3.50;;;1.70;;
62796;SDS011;48839;48.546;-4.178;2024-02-15T05:40:16;4.50;;;1.90;;
62796;SDS011;48839;48.546;-4.178;2024-02-15T05:45:47;4.10;;;1.60;;
62796;SDS011;48839;48.546;-4.178;2024-02-15T05:51:18;3.58;;;1.65;;
62796;SDS011;48839;48.546;-4.178;2024-02-15T05:56:47;2.35;;;1.77;;
62796;SDS011;48839;48.546;-4.178;2024-02-15T06:02:20;3.50;;;1.80;;
62796;SDS011;48839;48.546;-4.178;2024-02-15T06:07:57;3.45;;;1.55;;
62796;SDS011;48839;48.546;-4.178;2024-02-15T06:13:27;3.25;;;1.50;;
62796;SDS011;48839;48.546;-4.178;2024-02-15T06:18:57;3.72;;;1.60;;
62796;SDS011;48839;48.546;-4.178;2024-02-15T06:24:27;3.00;;;2.00;;
62796;SDS011;48839;48.546;-4.178;2024-02-15T06:26:53;3.70;;;2.38;;
62796;SDS011;48839;48.546;-4.178;2024-02-15T06:29:25;3.13;;;2.67;;
62796;SDS011;48839;48.546;-4.178;2024-02-15T06:32:10;4.78;;;2.40;;
62796;SDS011;48839;48.546;-4.178;2024-02-15T06:34:55;5.65;;;1.90;;
62796;SDS011;48839;48.546;-4.178;2024-02-15T06:37:39;4.80;;;2.15;;
62796;SDS011;48839;48.546;-4.178;2024-02-15T06:40:24;6.85;;;2.47;;
62796;SDS011;48839;48.546;-4.178;2024-02-15T06:42:50;3.78;;;2.10;;
62796;SDS011;48839;48.546;-4.178;2024-02-15T06:45:22;3.03;;;1.65;;
62796;SDS011;48839;48.546;-4.178;2024-02-15T06:47:54;6.28;;;2.70;;
62796;SDS011;48839;48.546;-4.178;2024-02-15T06:50:23;6.07;;;3.08;;
62796;SDS011;48839;48.546;-4.178;2024-02-15T06:52:51;6.40;;;3.85;;
62796;SDS011;48839;48.546;-4.178;2024-02-15T06:55:21;6.97;;;5.20;;
62796;SDS011;48839;48.546;-4.178;2024-02-15T06:57:47;3.38;;;2.70;;
62796;SDS011;48839;48.546;-4.178;2024-02-15T07:00:16;5.60;;;2.00;;
62796;SDS011;48839;48.546;-4.178;2024-02-15T07:02:43;5.15;;;2.00;;
62796;SDS011;48839;48.546;-4.178;2024-02-15T07:05:12;7.57;;;2.33;;
62796;SDS011;48839;48.546;-4.178;2024-02-15T07:07:42;3.83;;;2.15;;
62796;SDS011;48839;48.546;-4.178;2024-02-15T07:10:08;3.35;;;2.20;;
62796;SDS011;48839;48.546;-4.178;2024-02-15T07:12:36;8.07;;;2.40;;
62796;SDS011;48839;48.546;-4.178;2024-02-15T07:15:04;6.97;;;3.33;;
62796;SDS011;48839;48.546;-4.178;2024-02-15T07:17:32;10.65;;;3.60;;
62796;SDS011;48839;48.546;-4.178;2024-02-15T07:20:07;4.70;;;2.33;;
62796;SDS011;48839;48.546;-4.178;2024-02-15T07:22:35;12.02;;;5.20;;
62796;SDS011;48839;48.546;-4.178;2024-02-15T07:25:06;8.50;;;4.13;;
62796;SDS011;48839;48.546;-4.178;2024-02-15T07:27:34;11.20;;;5.45;;
62796;SDS011;48839;48.546;-4.178;2024-02-15T07:30:00;6.93;;;2.58;;
62796;SDS011;48839;48.546;-4.178;2024-02-15T07:32:27;17.13;;;8.88;;
62796;SDS011;48839;48.546;-4.178;2024-02-15T07:34:53;10.50;;;4.03;;
62796;SDS011;48839;48.546;-4.178;2024-02-15T07:37:19;17.70;;;8.60;;
62796;SDS011;48839;48.546;-4.178;2024-02-15T07:39:49;9.55;;;5.95;;
62796;SDS011;48839;48.546;-4.178;2024-02-15T07:42:15;9.30;;;4.38;;
62796;SDS011;48839;48.546;-4.178;2024-02-15T07:44:41;9.32;;;4.80;;
62796;SDS011;48839;48.546;-4.178;2024-02-15T07:47:08;7.82;;;4.32;;
62796;SDS011;48839;48.546;-4.178;2024-02-15T07:49:35;5.05;;;2.83;;
62796;SDS011;48839;48.546;-4.178;2024-02-15T07:52:02;10.07;;;5.43;;
62796;SDS011;48839;48.546;-4.178;2024-02-15T07:54:29;7.50;;;4.63;;
62796;SDS011;48839;48.546;-4.178;2024-02-15T07:56:58;10.70;;;4.13;;
62796;SDS011;48839;48.546;-4.178;2024-02-15T07:59:24;6.45;;;2.83;;
62796;SDS011;48839;48.546;-4.178;2024-02-15T08:01:51;7.47;;;2.80;;
62796;SDS011;48839;48.546;-4.178;2024-02-15T08:04:18;8.93;;;3.45;;
62796;SDS011;48839;48.546;-4.178;2024-02-15T08:06:46;6.10;;;2.88;;
62796;SDS011;48839;48.546;-4.178;2024-02-15T08:09:14;6.05;;;2.45;;
62796;SDS011;48839;48.546;-4.178;2024-02-15T08:11:43;4.85;;;2.47;;
62796;SDS011;48839;48.546;-4.178;2024-02-15T08:14:09;6.95;;;3.00;;
62796;SDS011;48839;48.546;-4.178;2024-02-15T08:16:38;7.57;;;3.63;;
62796;SDS011;48839;48.546;-4.178;2024-02-15T08:19:05;7.55;;;3.80;;
62796;SDS011;48839;48.546;-4.178;2024-02-15T08:21:32;7.32;;;2.47;;
62796;SDS011;48839;48.546;-4.178;2024-02-15T08:24:01;7.82;;;2.67;;
62796;SDS011;48839;48.546;-4.178;2024-02-15T08:26:36;5.57;;;2.50;;
62796;SDS011;48839;48.546;-4.178;2024-02-15T08:32:09;9.80;;;2.83;;
62796;SDS011;48839;48.546;-4.178;2024-02-15T08:37:40;15.40;;;7.45;;
62796;SDS011;48839;48.546;-4.178;2024-02-15T08:43:16;7.00;;;2.78;;
62796;SDS011;48839;48.546;-4.178;2024-02-15T08:48:45;7.10;;;3.22;;
62796;SDS011;48839;48.546;-4.178;2024-02-15T08:54:15;12.35;;;3.83;;
62796;SDS011;48839;48.546;-4.178;2024-02-15T08:59:45;5.68;;;3.88;;
62796;SDS011;48839;48.546;-4.178;2024-02-15T09:05:15;7.70;;;2.90;;
62796;SDS011;48839;48.546;-4.178;2024-02-15T09:10:57;6.38;;;3.53;;
62796;SDS011;48839;48.546;-4.178;2024-02-15T09:16:27;9.40;;;3.13;;
62796;SDS011;48839;48.546;-4.178;2024-02-15T09:21:56;7.90;;;2.65;;
62796;SDS011;48839;48.546;-4.178;2024-02-15T09:27:26;11.10;;;3.33;;
62796;SDS011;48839;48.546;-4.178;2024-02-15T09:32:56;7.53;;;2.92;;
62796;SDS011;48839;48.546;-4.178;2024-02-15T09:38:25;8.35;;;2.65;;
62796;SDS011;48839;48.546;-4.178;2024-02-15T09:43:55;11.55;;;3.53;;
62796;SDS011;48839;48.546;-4.178;2024-02-15T09:49:24;5.70;;;2.30;;
62796;SDS011;48839;48.546;-4.178;2024-02-15T09:54:54;7.43;;;2.63;;
62796;SDS011;48839;48.546;-4.178;2024-02-15T10:00:24;3.97;;;2.25;;
62796;SDS011;48839;48.546;-4.178;2024-02-15T10:05:54;5.03;;;2.20;;
62796;SDS011;48839;48.546;-4.178;2024-02-15T10:11:24;7.35;;;2.72;;
62796;SDS011;48839;48.546;-4.178;2024-02-15T10:16:54;6.03;;;2.45;;
62796;SDS011;48839;48.546;-4.178;2024-02-15T10:22:23;10.57;;;3.25;;
62796;SDS011;48839;48.546;-4.178;2024-02-15T10:28:01;6.60;;;2.95;;
62796;SDS011;48839;48.546;-4.178;2024-02-15T10:33:31;9.00;;;2.70;;
62796;SDS011;48839;48.546;-4.178;2024-02-15T10:39:13;5.70;;;2.47;;
62796;SDS011;48839;48.546;-4.178;2024-02-15T10:44:45;8.00;;;2.13;;
62796;SDS011;48839;48.546;-4.178;2024-02-15T10:50:15;6.53;;;1.90;;
62796;SDS011;48839;48.546;-4.178;2024-02-15T10:55:47;8.63;;;2.70;;
62796;SDS011;48839;48.546;-4.178;2024-02-15T11:01:18;9.43;;;2.17;;
62796;SDS011;48839;48.546;-4.178;2024-02-15T11:06:51;8.88;;;2.20;;
62796;SDS011;48839;48.546;-4.178;2024-02-15T11:12:24;9.07;;;2.00;;
62796;SDS011;48839;48.546;-4.178;2024-02-15T11:17:56;14.15;;;2.63;;
62796;SDS011;48839;48.546;-4.178;2024-02-15T11:23:27;9.20;;;2.42;;
62796;SDS011;48839;48.546;-4.178;2024-02-15T11:28:56;7.75;;;2.80;;
62796;SDS011;48839;48.546;-4.178;2024-02-15T11:34:42;9.40;;;2.50;;
62796;SDS011;48839;48.546;-4.178;2024-02-15T11:40:24;10.13;;;2.45;;
62796;SDS011;48839;48.546;-4.178;2024-02-15T11:45:58;9.95;;;2.97;;
62796;SDS011;48839;48.546;-4.178;2024-02-15T11:51:34;10.90;;;2.33;;
62796;SDS011;48839;48.546;-4.178;2024-02-15T11:57:15;9.48;;;2.28;;
62796;SDS011;48839;48.546;-4.178;2024-02-15T12:02:54;7.50;;;3.10;;
62796;SDS011;48839;48.546;-4.178;2024-02-15T12:08:46;11.60;;;3.42;;
62796;SDS011;48839;48.546;-4.178;2024-02-15T12:14:35;6.37;;;2.50;;
62796;SDS011;48839;48.546;-4.178;2024-02-15T12:20:23;10.10;;;2.43;;
62796;SDS011;48839;48.546;-4.178;2024-02-15T12:25:53;18.08;;;3.65;;
62796;SDS011;48839;48.546;-4.178;2024-02-15T12:31:24;13.10;;;3.25;;
62796;SDS011;48839;48.546;-4.178;2024-02-15T12:37:06;7.03;;;2.50;;
62796;SDS011;48839;48.546;-4.178;2024-02-15T12:42:38;4.97;;;2.70;;
62796;SDS011;48839;48.546;-4.178;2024-02-15T12:48:08;8.90;;;2.35;;
62796;SDS011;48839;48.546;-4.178;2024-02-15T12:53:39;6.97;;;2.60;;
62796;SDS011;48839;48.546;-4.178;2024-02-15T12:59:10;9.38;;;2.50;;
62796;SDS011;48839;48.546;-4.178;2024-02-15T13:04:40;11.80;;;2.33;;
62796;SDS011;48839;48.546;-4.178;2024-02-15T13:10:10;10.27;;;3.33;;
62796;SDS011;48839;48.546;-4.178;2024-02-15T13:15:40;10.23;;;2.80;;
62796;SDS011;48839;48.546;-4.178;2024-02-15T13:21:10;7.85;;;2.33;;
62796;SDS011;48839;48.546;-4.178;2024-02-15T13:26:40;6.53;;;2.38;;
62796;SDS011;48839;48.546;-4.178;2024-02-15T13:32:09;9.73;;;2.40;;
62796;SDS011;48839;48.546;-4.178;2024-02-15T13:37:47;8.18;;;2.95;;
62796;SDS011;48839;48.546;-4.178;2024-02-15T13:43:17;8.30;;;2.50;;
62796;SDS011;48839;48.546;-4.178;2024-02-15T13:48:46;8.02;;;2.00;;
62796;SDS011;48839;48.546;-4.178;2024-02-15T13:54:16;11.27;;;2.67;;
62796;SDS011;48839;48.546;-4.178;2024-02-15T13:59:46;11.43;;;2.90;;
62796;SDS011;48839;48.546;-4.178;2024-02-15T14:05:17;7.07;;;2.20;;
62796;SDS011;48839;48.546;-4.178;2024-02-15T14:10:52;8.00;;;2.90;;
62796;SDS011;48839;48.546;-4.178;2024-02-15T14:16:22;6.75;;;2.53;;
62796;SDS011;48839;48.546;-4.178;2024-02-15T14:21:52;10.93;;;2.60;;
62796;SDS011;48839;48.546;-4.178;2024-02-15T14:27:23;7.00;;;2.22;;
62796;SDS011;48839;48.546;-4.178;2024-02-15T14:32:52;6.97;;;2.72;;
62796;SDS011;48839;48.546;-4.178;2024-02-15T14:38:28;13.07;;;3.33;;
62796;SDS011;48839;48.546;-4.178;2024-02-15T14:43:58;9.98;;;2.75;;
62796;SDS011;48839;48.546;-4.178;2024-02-15T14:49:28;9.07;;;2.70;;
62796;SDS011;48839;48.546;-4.178;2024-02-15T14:54:58;8.88;;;2.85;;
62796;SDS011;48839;48.546;-4.178;2024-02-15T15:00:27;9.57;;;2.60;;
62796;SDS011;48839;48.546;-4.178;2024-02-15T15:05:57;8.20;;;2.55;;
62796;SDS011;48839;48.546;-4.178;2024-02-15T15:11:45;6.85;;;2.65;;
62796;SDS011;48839;48.546;-4.178;2024-02-15T15:17:33;6.95;;;2.42;;
62796;SDS011;48839;48.546;-4.178;2024-02-15T15:23:05;7.57;;;2.75;;
62796;SDS011;48839;48.546;-4.178;2024-02-15T15:28:35;10.00;;;2.55;;
62796;SDS011;48839;48.546;-4.178;2024-02-15T15:34:04;8.40;;;2.85;;
62796;SDS011;48839;48.546;-4.178;2024-02-15T15:39:35;6.47;;;2.92;;
62796;SDS011;48839;48.546;-4.178;2024-02-15T15:45:05;7.95;;;2.90;;
62796;SDS011;48839;48.546;-4.178;2024-02-15T15:50:37;11.25;;;3.00;;
62796;SDS011;48839;48.546;-4.178;2024-02-15T15:56:09;8.77;;;3.17;;
62796;SDS011;48839;48.546;-4.178;2024-02-15T16:01:39;12.17;;;3.53;;
62796;SDS011;48839;48.546;-4.178;2024-02-15T16:07:16;7.70;;;3.50;;
62796;SDS011;48839;48.546;-4.178;2024-02-15T16:12:46;9.52;;;3.50;;
62796;SDS011;48839;48.546;-4.178;2024-02-15T16:27:51;8.13;;;3.40;;
62796;SDS011;48839;48.546;-4.178;2024-02-15T16:33:23;11.85;;;3.85;;
62796;SDS011;48839;48.546;-4.178;2024-02-15T16:38:53;7.97;;;2.90;;
62796;SDS011;48839;48.546;-4.178;2024-02-15T16:44:23;11.32;;;3.75;;
62796;SDS011;48839;48.546;-4.178;2024-02-15T16:49:52;13.88;;;3.28;;
62796;SDS011;48839;48.546;-4.178;2024-02-15T16:55:22;7.20;;;2.80;;
62796;SDS011;48839;48.546;-4.178;2024-02-15T17:01:01;11.00;;;2.80;;
62796;SDS011;48839;48.546;-4.178;2024-02-15T17:06:31;7.60;;;3.55;;
62796;SDS011;48839;48.546;-4.178;2024-02-15T17:12:00;9.88;;;2.95;;
62796;SDS011;48839;48.546;-4.178;2024-02-15T17:17:34;8.15;;;3.15;;
62796;SDS011;48839;48.546;-4.178;2024-02-15T17:23:06;9.73;;;3.38;;
62796;SDS011;48839;48.546;-4.178;2024-02-15T17:28:39;10.10;;;3.40;;
62796;SDS011;48839;48.546;-4.178;2024-02-15T17:34:08;7.53;;;3.10;;
62796;SDS011;48839;48.546;-4.178;2024-02-15T17:39:39;11.73;;;3.88;;
62796;SDS011;48839;48.546;-4.178;2024-02-15T17:45:09;9.43;;;3.45;;
62796;SDS011;48839;48.546;-4.178;2024-02-15T17:50:39;14.35;;;3.70;;
62796;SDS011;48839;48.546;-4.178;2024-02-15T17:56:09;23.83;;;13.75;;
62796;SDS011;48839;48.546;-4.178;2024-02-15T18:01:42;43.33;;;22.83;;
62796;SDS011;48839;48.546;-4.178;2024-02-15T18:07:12;11.02;;;4.68;;
62796;SDS011;48839;48.546;-4.178;2024-02-15T18:12:42;27.75;;;12.77;;
62796;SDS011;48839;48.546;-4.178;2024-02-15T18:18:12;42.22;;;25.80;;
62796;SDS011;48839;48.546;-4.178;2024-02-15T18:23:41;26.70;;;14.50;;
62796;SDS011;48839;48.546;-4.178;2024-02-15T18:29:12;21.65;;;9.85;;
62796;SDS011;48839;48.546;-4.178;2024-02-15T18:34:41;12.05;;;3.75;;
62796;SDS011;48839;48.546;-4.178;2024-02-15T18:40:11;30.13;;;21.38;;
62796;SDS011;48839;48.546;-4.178;2024-02-15T18:45:41;14.10;;;6.13;;
62796;SDS011;48839;48.546;-4.178;2024-02-15T18:51:15;9.18;;;4.38;;
62796;SDS011;48839;48.546;-4.178;2024-02-15T18:56:46;11.95;;;4.22;;
62796;SDS011;48839;48.546;-4.178;2024-02-15T19:02:19;11.75;;;5.65;;
62796;SDS011;48839;48.546;-4.178;2024-02-15T19:07:49;9.47;;;4.33;;
62796;SDS011;48839;48.546;-4.178;2024-02-15T19:13:20;17.88;;;4.93;;
62796;SDS011;48839;48.546;-4.178;2024-02-15T19:18:50;22.48;;;8.40;;
62796;SDS011;48839;48.546;-4.178;2024-02-15T19:24:20;14.18;;;7.88;;
62796;SDS011;48839;48.546;-4.178;2024-02-15T19:29:49;11.63;;;10.38;;
62796;SDS011;48839;48.546;-4.178;2024-02-15T19:35:19;15.15;;;6.28;;
62796;SDS011;48839;48.546;-4.178;2024-02-15T19:40:48;13.40;;;5.20;;
62796;SDS011;48839;48.546;-4.178;2024-02-15T19:46:19;18.40;;;8.17;;
62796;SDS011;48839;48.546;-4.178;2024-02-15T19:51:49;15.20;;;7.82;;
62796;SDS011;48839;48.546;-4.178;2024-02-15T19:57:19;14.57;;;9.30;;
62796;SDS011;48839;48.546;-4.178;2024-02-15T20:02:49;38.10;;;13.10;;
62796;SDS011;48839;48.546;-4.178;2024-02-15T20:08:21;20.00;;;9.65;;
62796;SDS011;48839;48.546;-4.178;2024-02-15T20:13:50;14.68;;;8.40;;
62796;SDS011;48839;48.546;-4.178;2024-02-15T20:19:21;14.48;;;8.60;;
62796;SDS011;48839;48.546;-4.178;2024-02-15T20:24:50;17.08;;;7.13;;
62796;SDS011;48839;48.546;-4.178;2024-02-15T20:30:20;10.23;;;5.60;;
62796;SDS011;48839;48.546;-4.178;2024-02-15T20:35:50;6.03;;;4.07;;
62796;SDS011;48839;48.546;-4.178;2024-02-15T20:41:20;4.78;;;2.83;;
62796;SDS011;48839;48.546;-4.178;2024-02-15T20:46:55;4.95;;;3.00;;
62796;SDS011;48839;48.546;-4.178;2024-02-15T20:52:25;15.97;;;9.93;;
62796;SDS011;48839;48.546;-4.178;2024-02-15T20:57:55;13.35;;;8.10;;
62796;SDS011;48839;48.546;-4.178;2024-02-15T21:03:24;9.23;;;5.65;;
62796;SDS011;48839;48.546;-4.178;2024-02-15T21:08:54;10.55;;;6.15;;
62796;SDS011;48839;48.546;-4.178;2024-02-15T21:14:26;15.13;;;10.05;;
62796;SDS011;48839;48.546;-4.178;2024-02-15T21:19:56;25.50;;;18.75;;
62796;SDS011;48839;48.546;-4.178;2024-02-15T21:25:25;6.47;;;5.30;;
62796;SDS011;48839;48.546;-4.178;2024-02-15T21:30:56;7.15;;;5.43;;
62796;SDS011;48839;48.546;-4.178;2024-02-15T21:36:26;3.28;;;2.42;;
62796;SDS011;48839;48.546;-4.178;2024-02-15T21:41:55;4.72;;;2.10;;
62796;SDS011;48839;48.546;-4.178;2024-02-15T21:47:27;6.60;;;2.10;;
62796;SDS011;48839;48.546;-4.178;2024-02-15T21:52:57;5.55;;;2.08;;
62796;SDS011;48839;48.546;-4.178;2024-02-15T21:58:28;4.03;;;2.58;;
62796;SDS011;48839;48.546;-4.178;2024-02-15T22:03:58;4.15;;;1.90;;
62796;SDS011;48839;48.546;-4.178;2024-02-15T22:09:27;7.40;;;3.70;;
62796;SDS011;48839;48.546;-4.178;2024-02-15T22:14:58;9.27;;;4.13;;
62796;SDS011;48839;48.546;-4.178;2024-02-15T22:20:29;10.03;;;4.17;;
62796;SDS011;48839;48.546;-4.178;2024-02-15T22:25:59;9.55;;;4.05;;
62796;SDS011;48839;48.546;-4.178;2024-02-15T22:31:29;8.77;;;2.83;;
62796;SDS011;48839;48.546;-4.178;2024-02-15T22:36:58;15.50;;;8.85;;
62796;SDS011;48839;48.546;-4.178;2024-02-15T22:42:28;6.20;;;3.60;;
62796;SDS011;48839;48.546;-4.178;2024-02-15T22:47:57;7.45;;;2.97;;
62796;SDS011;48839;48.546;-4.178;2024-02-15T22:53:28;9.65;;;1.70;;
62796;SDS011;48839;48.546;-4.178;2024-02-15T22:58:57;8.68;;;1.23;;
62796;SDS011;48839;48.546;-4.178;2024-02-15T23:04:27;10.98;;;6.32;;
62796;SDS011;48839;48.546;-4.178;2024-02-15T23:09:57;9.40;;;3.60;;
62796;SDS011;48839;48.546;-4.178;2024-02-15T23:15:27;11.32;;;2.63;;
62796;SDS011;48839;48.546;-4.178;2024-02-15T23:20:56;12.10;;;4.50;;
62796;SDS011;48839;48.546;-4.178;2024-02-15T23:26:26;12.53;;;5.93;;
62796;SDS011;48839;48.546;-4.178;2024-02-15T23:31:56;12.07;;;5.05;;
62796;SDS011;48839;48.546;-4.178;2024-02-15T23:37:26;20.42;;;7.32;;
62796;SDS011;48839;48.546;-4.178;2024-02-15T23:43:14;14.00;;;7.03;;
62796;SDS011;48839;48.546;-4.178;2024-02-15T23:48:43;19.50;;;7.53;;
62796;SDS011;48839;48.546;-4.178;2024-02-15T23:54:13;23.05;;;9.65;;
62796;SDS011;48839;48.546;-4.178;2024-02-15T23:59:43;21.73;;;10.63;;
